Time;durP1;ratioP1;P1;durP2;ratioP2;P2;SDS_P1;SDS_P2;PMS_P1;PMS_P2;Temp;Humidity;BMP_temperature;BMP_pressure;BME280_temperature;BME280_humidity;BME280_pressure;Samples;Min_cycle;Max_cycle;Signal;HPM_P1;HPM_P2
2024/03/07 00:02:28;;;;;;;;;;;;;;;12.64;68.48;100891.19;5078043;28;19916;-78
2024/03/07 00:05:21;;;;;;;;;;;;;;;12.66;68.46;100891.66;5081487;28;19942;-77
2024/03/07 00:08:14;;;;;;;;;;;;;;;12.71;68.13;100894.22;5078628;28;20312;-78
2024/03/07 00:11:06;;;;;;;;;;;;;;;12.73;68.05;100893.88;5082749;28;19920;-77
2024/03/07 00:13:58;;;;;;;;;;;;;;;12.72;67.83;100893.09;5077131;28;19920;-77
2024/03/07 00:16:47;;;;;;;;;;;;;;;12.63;67.53;100883.31;5091887;28;20310;-77
2024/03/07 00:19:39;;;;;;;;;;;;;;;12.56;67.04;100889.28;5081352;28;19920;-77
2024/03/07 00:22:31;;;;;;;;;;;;;;;12.55;67.22;100884.94;5079652;28;19916;-78
2024/03/07 00:25:23;;;;;;;;;;;;;;;12.58;67.48;100884.31;5077170;28;19916;-78
2024/03/07 00:28:15;;;;;;;;;;;;;;;12.63;67.30;100886.84;5091412;28;19920;-77
2024/03/07 00:31:05;;;;;;;;;;;;;;;12.68;67.16;100889.41;5078765;28;19920;-76
2024/03/07 00:33:57;;;;;;;;;;;;;;;12.74;66.83;100888.13;5076462;28;19920;-76
2024/03/07 00:36:46;;;;;;;;;;;;;;;12.78;67.22;100888.25;5080151;28;20393;-77
2024/03/07 00:39:36;;;;;;;;;;;;;;;12.74;67.03;100892.78;5077841;28;19920;-77
2024/03/07 00:42:28;;;;;;;;;;;;;;;12.80;66.83;100889.53;5076472;28;19920;-77
2024/03/07 00:45:20;;;;;;;;;;;;;;;12.75;67.01;100886.97;5076505;28;20313;-77
2024/03/07 00:48:11;;;;;;;;;;;;;;;12.79;66.94;100889.88;5076822;28;19924;-78
2024/03/07 00:51:01;;;;;;;;;;;;;;;12.74;66.88;100888.13;5076354;28;19920;-77
2024/03/07 00:53:53;;;;;;;;;;;;;;;12.70;66.38;100897.25;5076675;28;19920;-77
2024/03/07 00:56:45;;;;;;;;;;;;;;;12.70;66.69;100886.34;5063102;28;19920;-77
2024/03/07 00:59:37;;;;;;;;;;;;;;;12.65;66.95;100889.25;5090476;28;19920;-77
2024/03/07 01:02:29;;;;;;;;;;;;;;;12.58;66.62;100887.03;5064165;28;19920;-77
2024/03/07 01:05:21;;;;;;;;;;;;;;;12.58;66.49;100887.03;5076240;28;19916;-77
2024/03/07 01:08:13;;;;;;;;;;;;;;;12.50;66.93;100887.81;5090834;28;20335;-77
2024/03/07 01:11:09;;;;;;;;;;;;;;;12.50;66.90;100885.09;5063411;28;19920;-77
2024/03/07 01:13:58;;;;;;;;;;;;;;;12.46;66.86;100881.41;5076342;28;19920;-77
2024/03/07 01:16:50;;;;;;;;;;;;;;;12.43;67.08;100877.44;5078321;28;19916;-77
2024/03/07 01:19:42;;;;;;;;;;;;;;;12.31;67.26;100884.66;5075690;28;19920;-77
2024/03/07 01:22:34;;;;;;;;;;;;;;;12.16;67.63;100883.22;5091106;28;20328;-77
2024/03/07 01:25:26;;;;;;;;;;;;;;;12.04;68.36;100877.59;5077676;28;19916;-77
2024/03/07 01:28:18;;;;;;;;;;;;;;;12.10;68.35;100872.78;5075695;28;19916;-78
2024/03/07 01:31:10;;;;;;;;;;;;;;;12.11;68.30;100868.94;5078648;28;19920;-77
2024/03/07 01:34:02;;;;;;;;;;;;;;;12.05;68.27;100862.06;5077242;28;19916;-77
2024/03/07 01:36:55;;;;;;;;;;;;;;;12.06;68.60;100860.94;5089531;28;19920;-76
2024/03/07 01:39:44;;;;;;;;;;;;;;;12.03;68.45;100850.69;5058011;28;19924;-77
2024/03/07 01:42:36;;;;;;;;;;;;;;;12.09;68.28;100849.41;5101220;28;19916;-78
2024/03/07 01:45:28;;;;;;;;;;;;;;;12.11;68.35;100852.59;5106435;28;19916;-77
2024/03/07 01:48:25;;;;;;;;;;;;;;;12.19;68.15;100844.41;5110693;28;20376;-77
2024/03/07 01:51:17;;;;;;;;;;;;;;;12.27;67.80;100846.34;5085232;28;19916;-77
2024/03/07 01:54:09;;;;;;;;;;;;;;;12.17;68.02;100840.41;5076005;28;20389;-77
2024/03/07 01:57:01;;;;;;;;;;;;;;;12.16;67.86;100838.81;5076511;28;20301;-76
2024/03/07 01:59:53;;;;;;;;;;;;;;;11.99;68.67;100845.84;5061371;28;19920;-76
2024/03/07 02:02:46;;;;;;;;;;;;;;;11.98;68.87;100844.28;5077720;28;19920;-77
2024/03/07 02:05:39;;;;;;;;;;;;;;;12.02;69.01;100843.63;5061730;28;19916;-77
2024/03/07 02:08:31;;;;;;;;;;;;;;;12.07;69.10;100846.19;5078714;28;19920;-77
2024/03/07 02:11:21;;;;;;;;;;;;;;;11.95;68.75;100846.81;5063831;28;19916;-76
2024/03/07 02:14:12;;;;;;;;;;;;;;;11.92;68.50;100839.31;5084423;28;19916;-77
2024/03/07 02:17:04;;;;;;;;;;;;;;;11.90;68.46;100836.91;5082035;28;19916;-77
2024/03/07 02:20:02;;;;;;;;;;;;;;;11.93;68.30;100830.81;5086732;28;19924;-76
2024/03/07 02:22:56;;;;;;;;;;;;;;;11.93;68.31;100836.28;5082422;28;19923;-77
2024/03/07 02:25:48;;;;;;;;;;;;;;;11.98;68.29;100833.38;5092998;28;19919;-78
2024/03/07 02:28:39;;;;;;;;;;;;;;;11.92;68.12;100829.22;5103563;28;19916;-77
2024/03/07 02:31:36;;;;;;;;;;;;;;;11.85;68.77;100828.88;5088329;28;19919;-78
2024/03/07 02:34:28;;;;;;;;;;;;;;;11.89;68.55;100832.56;5100186;28;19916;-77
2024/03/07 02:37:20;;;;;;;;;;;;;;;11.89;68.57;100829.03;5103914;28;19916;-77
2024/03/07 02:40:12;;;;;;;;;;;;;;;11.82;68.82;100826.00;5101068;28;19923;-76
2024/03/07 02:43:04;;;;;;;;;;;;;;;11.74;68.83;100832.22;5099007;28;19916;-77
2024/03/07 02:45:57;;;;;;;;;;;;;;;11.70;68.75;100831.25;5113132;28;20577;-77
2024/03/07 02:48:49;;;;;;;;;;;;;;;11.66;69.36;100827.56;5113998;28;19916;-77
2024/03/07 02:51:41;;;;;;;;;;;;;;;11.65;68.89;100828.69;5087299;28;19920;-77
2024/03/07 02:54:30;;;;;;;;;;;;;;;11.69;68.96;100818.75;5117516;28;19916;-76
2024/03/07 02:57:22;;;;;;;;;;;;;;;11.68;69.49;100822.59;5113861;28;20312;-77
2024/03/07 03:00:26;;;;;;;;;;;;;;;11.70;69.53;100821.16;5118448;28;19920;-77
2024/03/07 03:03:17;;;;;;;;;;;;;;;11.77;69.70;100816.06;5093229;28;19916;-77
2024/03/07 03:06:09;;;;;;;;;;;;;;;11.73;69.87;100819.75;5098380;28;20301;-77
2024/03/07 03:09:01;;;;;;;;;;;;;;;11.73;70.36;100815.13;5113452;28;19939;-78
2024/03/07 03:11:53;;;;;;;;;;;;;;;11.74;70.44;100811.25;5113684;28;19915;-77
2024/03/07 03:14:45;;;;;;;;;;;;;;;11.69;70.23;100816.00;5089051;28;19916;-77
2024/03/07 03:17:37;;;;;;;;;;;;;;;11.70;70.38;100812.19;5098557;28;20312;-77
2024/03/07 03:20:33;;;;;;;;;;;;;;;11.72;70.45;100813.47;5084605;28;19923;-77
2024/03/07 03:23:25;;;;;;;;;;;;;;;11.66;70.81;100822.91;5099728;28;19916;-76
2024/03/07 03:26:17;;;;;;;;;;;;;;;11.58;71.44;100816.31;5085995;28;20316;-77
2024/03/07 03:29:09;;;;;;;;;;;;;;;11.70;71.28;100817.63;5097898;28;19920;-77
2024/03/07 03:32:01;;;;;;;;;;;;;;;11.70;70.96;100823.88;5113058;28;19915;-77
2024/03/07 03:34:55;;;;;;;;;;;;;;;11.75;71.12;100810.13;5113080;28;20296;-77
2024/03/07 03:37:48;;;;;;;;;;;;;;;11.72;71.43;100824.38;5102590;28;19916;-76
2024/03/07 03:40:40;;;;;;;;;;;;;;;11.80;70.84;100820.88;5113052;28;19927;-76
2024/03/07 03:43:32;;;;;;;;;;;;;;;11.76;70.65;100824.56;5112784;28;20389;-76
2024/03/07 03:46:24;;;;;;;;;;;;;;;11.72;70.44;100823.56;5101289;28;20381;-77
2024/03/07 03:49:16;;;;;;;;;;;;;;;11.80;70.72;100825.50;5097469;28;19920;-77
2024/03/07 03:52:08;;;;;;;;;;;;;;;11.76;70.43;100824.56;5095565;28;19924;-77
2024/03/07 03:55:00;;;;;;;;;;;;;;;11.71;70.29;100817.31;5091743;28;20320;-77
2024/03/07 03:57:52;;;;;;;;;;;;;;;11.72;70.27;100818.91;5084324;28;19915;-78
2024/03/07 04:00:45;;;;;;;;;;;;;;;11.62;70.75;100818.44;5097734;28;20460;-77
2024/03/07 04:03:42;;;;;;;;;;;;;;;11.63;70.67;100820.81;5084866;28;19916;-77
2024/03/07 04:06:34;;;;;;;;;;;;;;;11.77;70.53;100824.25;5097126;28;19920;-77
2024/03/07 04:09:27;;;;;;;;;;;;;;;11.82;70.23;100829.53;5112250;28;19915;-77
2024/03/07 04:12:19;;;;;;;;;;;;;;;11.88;69.63;100830.97;5084555;28;19927;-77
2024/03/07 04:15:13;;;;;;;;;;;;;;;11.89;69.76;100829.84;5088214;28;19931;-77
2024/03/07 04:18:05;;;;;;;;;;;;;;;11.78;70.20;100825.84;5112248;28;19949;-77
2024/03/07 04:20:57;;;;;;;;;;;;;;;11.70;70.27;100826.59;5078726;28;19920;-77
2024/03/07 04:23:50;;;;;;;;;;;;;;;11.71;70.22;100833.66;5079081;28;19916;-77
2024/03/07 04:26:42;;;;;;;;;;;;;;;11.77;69.53;100834.34;5090896;28;20324;-77
2024/03/07 04:29:37;;;;;;;;;;;;;;;11.77;69.68;100835.13;5081734;28;19920;-77
2024/03/07 04:32:27;;;;;;;;;;;;;;;11.74;69.94;100838.50;5079322;28;19920;-77
2024/03/07 04:35:22;;;;;;;;;;;;;;;11.56;70.37;100831.41;5076526;28;19920;-77
2024/03/07 04:38:14;;;;;;;;;;;;;;;11.54;70.21;100833.63;5066665;28;20301;-76
2024/03/07 04:41:06;;;;;;;;;;;;;;;11.63;70.04;100830.94;5076557;28;19928;-78
2024/03/07 04:43:58;;;;;;;;;;;;;;;11.51;70.02;100839.72;5091503;28;19916;-76
2024/03/07 04:46:50;;;;;;;;;;;;;;;11.54;69.92;100844.53;5086460;28;19916;-77
2024/03/07 04:49:42;;;;;;;;;;;;;;;11.84;68.57;100848.25;5076258;28;19916;-77
2024/03/07 04:52:33;;;;;;;;;;;;;;;11.63;68.90;100848.06;5080903;28;19920;-78
2024/03/07 04:55:28;;;;;;;;;;;;;;;11.63;69.76;100845.31;5076190;28;20255;-77
2024/03/07 04:58:20;;;;;;;;;;;;;;;11.58;69.08;100846.28;5076596;28;20194;-77
2024/03/07 05:01:12;;;;;;;;;;;;;;;11.55;69.45;100851.59;5086398;28;20385;-77
2024/03/07 05:04:04;;;;;;;;;;;;;;;11.52;69.87;100853.03;5084696;28;20386;-77
2024/03/07 05:06:56;;;;;;;;;;;;;;;11.43;70.37;100845.94;5090916;28;19920;-77
2024/03/07 05:09:47;;;;;;;;;;;;;;;11.47;70.60;100846.94;5072175;28;19920;-77
2024/03/07 05:12:39;;;;;;;;;;;;;;;11.46;70.36;100842.59;5095415;28;19919;-76
2024/03/07 05:15:31;;;;;;;;;;;;;;;11.46;70.51;100850.78;5111888;28;19916;-76
2024/03/07 05:18:23;;;;;;;;;;;;;;;11.48;70.62;100854.75;5111507;28;19915;-77
2024/03/07 05:24:21;;;;;;;;;;;;;;;11.37;70.17;100848.03;5093879;28;20369;-77
2024/03/07 05:27:16;;;;;;;;;;;;;;;11.34;70.45;100845.94;5091598;28;19939;-77
2024/03/07 05:30:05;;;;;;;;;;;;;;;11.37;70.58;100849.97;5081346;28;19919;-77
2024/03/07 05:32:58;;;;;;;;;;;;;;;11.42;70.33;100856.06;5096131;28;19928;-76
2024/03/07 05:35:50;;;;;;;;;;;;;;;11.38;70.81;100854.25;5073450;28;19916;-77
2024/03/07 05:38:39;;;;;;;;;;;;;;;11.27;70.92;100858.41;5094099;28;20051;-77
2024/03/07 05:41:31;;;;;;;;;;;;;;;11.21;70.92;100859.66;5093691;28;19920;-76
2024/03/07 05:44:23;;;;;;;;;;;;;;;11.26;71.03;100862.25;5065741;28;20728;-77
2024/03/07 05:47:18;;;;;;;;;;;;;;;11.22;71.29;100858.56;5088460;28;19919;-77
2024/03/07 05:50:10;;;;;;;;;;;;;;;11.27;71.00;100861.13;5102976;28;20296;-77
2024/03/07 05:53:02;;;;;;;;;;;;;;;11.25;70.52;100866.88;5083198;28;19916;-78
2024/03/07 05:55:54;;;;;;;;;;;;;;;11.24;70.73;100867.19;5068844;28;19920;-77
2024/03/07 05:58:46;;;;;;;;;;;;;;;11.13;71.26;100864.75;5079993;28;20304;-77
2024/03/07 06:01:38;;;;;;;;;;;;;;;11.06;70.85;100871.78;5070020;28;19917;-77
2024/03/07 06:04:29;;;;;;;;;;;;;;;11.05;71.01;100875.63;5081332;28;19920;-77
2024/03/07 06:07:21;;;;;;;;;;;;;;;11.15;71.23;100880.78;5094443;28;19920;-78
2024/03/07 06:10:13;;;;;;;;;;;;;;;11.12;70.79;100878.72;5082364;28;19916;-76
2024/03/07 06:13:08;;;;;;;;;;;;;;;11.06;71.03;100877.25;5079337;28;19916;-77
2024/03/07 06:15:59;;;;;;;;;;;;;;;11.04;71.22;100888.44;5094127;28;19916;-76
2024/03/07 06:18:51;;;;;;;;;;;;;;;11.08;71.03;100892.13;5080368;28;19924;-76
2024/03/07 06:21:43;;;;;;;;;;;;;;;11.00;70.56;100887.44;5081573;28;19916;-77
2024/03/07 06:24:35;;;;;;;;;;;;;;;10.92;69.84;100885.47;5075434;28;19916;-76
2024/03/07 06:27:37;;;;;;;;;;;;;;;10.24;71.87;100883.97;5088156;28;19924;-75
2024/03/07 06:30:29;;;;;;;;;;;;;;;10.15;73.80;100887.69;5091950;28;19915;-77
2024/03/07 06:33:21;;;;;;;;;;;;;;;10.06;74.11;100887.63;5080841;28;19916;-75
2024/03/07 06:36:16;;;;;;;;;;;;;;;10.15;75.29;100880.34;5079450;28;19916;-77
2024/03/07 06:39:05;;;;;;;;;;;;;;;10.43;74.25;100882.97;5092322;28;19920;-76
2024/03/07 06:41:57;;;;;;;;;;;;;;;10.44;74.40;100892.72;5067223;28;19924;-76
2024/03/07 06:44:49;;;;;;;;;;;;;;;10.29;74.82;100897.44;5100623;28;19919;-76
2024/03/07 06:47:41;;;;;;;;;;;;;;;10.44;74.96;100890.81;5079189;28;20389;-77
2024/03/07 06:50:36;;;;;;;;;;;;;;;10.59;74.25;100885.00;5056296;28;19920;-77
2024/03/07 06:53:28;;;;;;;;;;;;;;;10.75;73.16;100892.75;5072590;28;19920;-77
2024/03/07 06:56:20;;;;;;;;;;;;;;;10.80;74.10;100890.72;5075351;28;19916;-77
2024/03/07 06:59:13;;;;;;;;;;;;;;;10.85;73.45;100892.50;5078128;28;19924;-77
2024/03/07 07:02:05;;;;;;;;;;;;;;;11.03;73.12;100894.16;5082599;28;19920;-78
2024/03/07 07:04:56;;;;;;;;;;;;;;;11.08;72.31;100885.88;5080199;28;19969;-77
2024/03/07 07:07:46;;;;;;;;;;;;;;;10.92;72.25;100899.09;5064807;28;19920;-77
2024/03/07 07:10:38;;;;;;;;;;;;;;;10.89;73.43;100891.56;5081968;28;20401;-77
2024/03/07 07:13:30;;;;;;;;;;;;;;;10.92;73.47;100885.47;5078664;28;19916;-77
2024/03/07 07:16:24;;;;;;;;;;;;;;;11.09;73.04;100891.00;5072953;28;19939;-80
2024/03/07 07:19:16;;;;;;;;;;;;;;;11.07;73.02;100892.44;5089261;28;19923;-80
2024/03/07 07:22:08;;;;;;;;;;;;;;;11.20;72.52;100899.69;5082994;28;20301;-80
2024/03/07 07:25:00;;;;;;;;;;;;;;;11.31;72.11;100895.59;5097252;28;19916;-81
2024/03/07 07:27:52;;;;;;;;;;;;;;;11.67;70.83;100902.72;5070941;28;19916;-84
2024/03/07 07:30:44;;;;;;;;;;;;;;;11.62;70.07;100911.84;5069084;28;20393;-82
2024/03/07 07:33:36;;;;;;;;;;;;;;;11.81;69.78;100903.41;5083439;28;19916;-80
2024/03/07 07:36:28;;;;;;;;;;;;;;;12.24;69.48;100914.34;5092616;28;20324;-82
2024/03/07 07:39:20;;;;;;;;;;;;;;;12.50;68.38;100915.09;5086504;28;19921;-80
2024/03/07 07:42:12;;;;;;;;;;;;;;;12.70;68.59;100913.63;5070084;28;19916;-81
2024/03/07 07:45:04;;;;;;;;;;;;;;;12.86;67.46;100918.25;5096296;28;19916;-81
2024/03/07 07:47:56;;;;;;;;;;;;;;;13.04;67.46;100915.47;5089261;28;19916;-80
2024/03/07 07:50:48;;;;;;;;;;;;;;;13.03;66.96;100909.22;5072581;28;19916;-80
2024/03/07 07:53:40;;;;;;;;;;;;;;;13.01;67.13;100919.66;5089031;28;20392;-83
2024/03/07 07:56:32;;;;;;;;;;;;;;;12.93;67.23;100911.50;5086257;28;19916;-83
2024/03/07 07:59:24;;;;;;;;;;;;;;;13.06;67.44;100910.47;5067807;28;20325;-84
2024/03/07 08:02:16;;;;;;;;;;;;;;;13.24;66.19;100912.84;5090360;28;19915;-83
2024/03/07 08:05:08;;;;;;;;;;;;;;;13.63;64.96;100917.16;5098167;28;19919;-83
2024/03/07 08:07:59;;;;;;;;;;;;;;;13.71;63.77;100913.56;5100958;28;19916;-84
2024/03/07 08:10:51;;;;;;;;;;;;;;;13.86;62.92;100917.66;5058478;28;19917;-85
2024/03/07 08:13:43;;;;;;;;;;;;;;;13.82;63.02;100916.69;5060014;28;20381;-85
2024/03/07 08:16:35;;;;;;;;;;;;;;;13.45;62.56;100910.19;5051756;28;20377;-85
2024/03/07 08:19:27;;;;;;;;;;;;;;;13.58;63.25;100913.81;5094845;28;19923;-85
2024/03/07 08:22:19;;;;;;;;;;;;;;;13.56;63.10;100919.59;5104288;28;19916;-85
2024/03/07 08:25:12;;;;;;;;;;;;;;;13.79;62.91;100927.50;5105652;28;19916;-85
2024/03/07 08:28:02;;;;;;;;;;;;;;;14.13;62.06;100930.00;5091701;28;19916;-85
2024/03/07 08:30:51;;;;;;;;;;;;;;;14.29;62.51;100924.72;5115231;28;19916;-84
2024/03/07 08:33:43;;;;;;;;;;;;;;;14.25;62.43;100924.59;5091779;28;20294;-85
2024/03/07 08:36:34;;;;;;;;;;;;;;;14.43;61.80;100926.06;5085239;28;19917;-84
2024/03/07 08:39:26;;;;;;;;;;;;;;;14.54;61.44;100931.94;5070090;28;19921;-84
2024/03/07 08:42:18;;;;;;;;;;;;;;;14.51;60.51;100927.94;5083857;28;19916;-84
2024/03/07 08:45:10;;;;;;;;;;;;;;;14.87;60.09;100934.66;5064921;28;20305;-84
2024/03/07 08:47:59;;;;;;;;;;;;;;;14.94;60.29;100930.22;5104669;28;19916;-85
2024/03/07 08:50:48;;;;;;;;;;;;;;;16.36;56.85;100928.44;5101729;28;19915;-84
2024/03/07 08:53:41;;;;;;;;;;;;;;;16.36;54.39;100928.44;5100235;28;19916;-84
2024/03/07 08:56:33;;;;;;;;;;;;;;;17.44;53.17;100931.72;5091235;28;19915;-83
2024/03/07 08:59:25;;;;;;;;;;;;;;;17.85;51.30;100922.91;5115913;28;19916;-84
2024/03/07 09:02:14;;;;;;;;;;;;;;;18.58;49.23;100927.63;5089304;28;20328;-84
2024/03/07 09:05:06;;;;;;;;;;;;;;;18.47;47.91;100928.53;5088127;28;19916;-84
2024/03/07 09:07:58;;;;;;;;;;;;;;;18.70;46.33;100935.72;5087669;28;19915;-85
2024/03/07 09:10:48;;;;;;;;;;;;;;;18.92;46.06;100939.69;5079597;28;19916;-84
2024/03/07 09:13:40;;;;;;;;;;;;;;;18.45;47.40;100928.88;5100032;28;19916;-87
2024/03/07 09:16:29;;;;;;;;;;;;;;;18.51;47.68;100935.72;5113695;28;19916;-84
2024/03/07 09:19:24;;;;;;;;;;;;;;;17.93;46.91;100949.41;5113287;28;19920;-83
2024/03/07 09:22:15;;;;;;;;;;;;;;;18.77;45.04;100933.09;5095209;28;20293;-84
2024/03/07 09:25:08;;;;;;;;;;;;;;;18.32;45.71;100932.97;5093785;28;19927;-83
2024/03/07 09:27:59;;;;;;;;;;;;;;;18.89;46.42;100942.38;5090772;28;19916;-84
2024/03/07 09:30:51;;;;;;;;;;;;;;;18.71;47.97;100942.03;5088855;28;19916;-83
2024/03/07 09:33:44;;;;;;;;;;;;;;;17.83;49.23;100943.66;5103161;28;20393;-84
2024/03/07 09:36:36;;;;;;;;;;;;;;;17.55;51.71;100952.03;5108413;28;20293;-84
2024/03/07 09:39:28;;;;;;;;;;;;;;;17.99;48.68;100947.19;5093999;28;19945;-84
2024/03/07 09:42:21;;;;;;;;;;;;;;;16.48;52.80;100944.88;5107993;28;19915;-84
2024/03/07 09:45:15;;;;;;;;;;;;;;;16.88;51.00;100947.56;5108583;28;19916;-84
2024/03/07 09:48:08;;;;;;;;;;;;;;;16.22;53.27;100943.34;5116683;28;19916;-84
2024/03/07 09:51:01;;;;;;;;;;;;;;;17.35;51.51;100939.38;5102011;28;19916;-84
2024/03/07 09:53:54;;;;;;;;;;;;;;;17.20;52.44;100951.16;5088186;28;19916;-84
2024/03/07 09:56:47;;;;;;;;;;;;;;;18.00;49.81;100939.72;5108291;28;19916;-84
2024/03/07 09:59:40;;;;;;;;;;;;;;;18.13;49.41;100943.97;5093903;28;19923;-84
2024/03/07 10:02:34;;;;;;;;;;;;;;;17.83;48.71;100941.72;5116347;28;19916;-84
2024/03/07 10:05:22;;;;;;;;;;;;;;;18.47;48.91;100947.81;5093728;28;20296;-83
2024/03/07 10:08:13;;;;;;;;;;;;;;;18.47;48.35;100948.63;5093601;28;20373;-84
2024/03/07 10:11:03;;;;;;;;;;;;;;;19.40;45.81;100956.66;5101380;28;19915;-84
2024/03/07 10:13:52;;;;;;;;;;;;;;;20.77;42.44;100954.28;5088013;28;19916;-84
2024/03/07 10:16:44;;;;;;;;;;;;;;;22.01;39.20;100958.94;5101537;28;19916;-84
2024/03/07 10:19:36;;;;;;;;;;;;;;;19.81;43.29;100946.69;5107385;28;19915;-84
2024/03/07 10:22:28;;;;;;;;;;;;;;;20.27;42.01;100950.06;5092022;28;19920;-84
2024/03/07 10:25:22;;;;;;;;;;;;;;;20.86;41.50;100955.56;5116256;28;19915;-84
2024/03/07 10:28:15;;;;;;;;;;;;;;;20.58;41.32;100962.72;5107453;28;19915;-84
2024/03/07 10:31:05;;;;;;;;;;;;;;;18.68;45.65;100954.59;5093416;28;19920;-84
2024/03/07 10:34:00;;;;;;;;;;;;;;;19.92;42.22;100953.16;5100379;28;20315;-83
2024/03/07 10:36:51;;;;;;;;;;;;;;;21.51;38.82;100957.78;5107417;28;20393;-84
2024/03/07 10:39:44;;;;;;;;;;;;;;;22.48;37.64;100957.19;5093260;28;19916;-84
2024/03/07 10:42:36;;;;;;;;;;;;;;;21.34;38.48;100959.22;5105168;28;19915;-84
2024/03/07 10:45:27;;;;;;;;;;;;;;;22.60;37.41;100954.06;5107415;28;19919;-84
2024/03/07 10:48:27;;;;;;;;;;;;;;;22.97;36.04;100957.34;5087479;28;19916;-84
2024/03/07 10:51:28;;;;;;;;;;;;;;;23.47;35.40;100957.44;5089697;28;19916;-84
2024/03/07 10:54:38;;;;;;;;;;;;;;;29.25;27.01;100968.19;5107347;28;20389;-84
2024/03/07 10:57:40;;;;;;;;;;;;;;;30.70;24.87;100966.31;5100673;28;19920;-84
2024/03/07 11:00:35;;;;;;;;;;;;;;;24.68;32.08;100961.53;5115057;28;20373;-82
2024/03/07 11:03:27;;;;;;;;;;;;;;;22.78;36.22;100959.69;5079578;28;19920;-84
2024/03/07 11:06:15;;;;;;;;;;;;;;;23.11;35.30;100961.38;5069649;28;19916;-83
2024/03/07 11:09:10;;;;;;;;;;;;;;;22.52;36.14;100950.47;5089699;28;19916;-82
2024/03/07 11:12:00;;;;;;;;;;;;;;;22.88;34.28;100956.16;5080944;28;19919;-82
2024/03/07 11:14:51;;;;;;;;;;;;;;;21.97;35.66;100955.34;5081156;28;19916;-83
2024/03/07 11:17:41;;;;;;;;;;;;;;;19.79;39.46;100941.53;5095971;28;19916;-84
2024/03/07 11:20:42;;;;;;;;;;;;;;;19.75;41.41;100945.41;5095709;28;19921;-83
2024/03/07 11:23:38;;;;;;;;;;;;;;;18.73;44.46;100942.47;5078015;28;19920;-83
2024/03/07 11:26:29;;;;;;;;;;;;;;;18.53;44.87;100941.66;5080484;28;19916;-83
2024/03/07 11:29:38;;;;;;;;;;;;;;;17.37;45.43;100937.06;5073116;28;19916;-83
2024/03/07 11:32:29;;;;;;;;;;;;;;;16.63;47.67;100933.97;5060466;28;19916;-83
2024/03/07 11:35:25;;;;;;;;;;;;;;;17.33;46.77;100928.72;5060972;28;19916;-84
2024/03/07 11:38:17;;;;;;;;;;;;;;;17.93;47.47;100924.66;5066911;28;19920;-82
2024/03/07 11:41:13;;;;;;;;;;;;;;;19.65;42.18;100924.78;5067388;28;19920;-83
2024/03/07 11:44:05;;;;;;;;;;;;;;;19.18;43.15;100916.91;5060419;28;19916;-83
2024/03/07 11:46:57;;;;;;;;;;;;;;;22.07;34.86;100920.59;5073339;28;19916;-83
2024/03/07 11:49:49;;;;;;;;;;;;;;;23.69;33.39;100911.81;5095895;28;19924;-82
2024/03/07 11:52:38;;;;;;;;;;;;;;;23.11;33.24;100909.41;5088105;28;20285;-83
2024/03/07 11:55:28;;;;;;;;;;;;;;;26.71;28.42;100915.84;5091177;28;20388;-83
2024/03/07 11:58:20;;;;;;;;;;;;;;;29.79;24.05;100925.59;5086997;28;19916;-82
2024/03/07 12:01:12;;;;;;;;;;;;;;;29.09;24.92;100912.16;5087122;28;20336;-83
2024/03/07 12:04:02;;;;;;;;;;;;;;;31.63;21.64;100908.72;5108360;28;19916;-83
2024/03/07 12:06:55;;;;;;;;;;;;;;;35.76;17.90;100916.53;5100839;28;19916;-84
2024/03/07 12:09:45;;;;;;;;;;;;;;;34.72;17.19;100915.25;5079358;28;19916;-84
2024/03/07 12:12:32;;;;;;;;;;;;;;;35.39;17.07;100908.31;5084340;28;19916;-83
2024/03/07 12:15:26;;;;;;;;;;;;;;;33.62;18.73;100904.56;5072507;28;19917;-83
2024/03/07 12:18:18;;;;;;;;;;;;;;;34.18;18.31;100902.06;5086199;28;19920;-84
2024/03/07 12:21:12;;;;;;;;;;;;;;;33.51;18.93;100899.38;5089232;28;19920;-84
2024/03/07 12:24:10;;;;;;;;;;;;;;;33.46;18.72;100889.50;5072544;28;19915;-84
2024/03/07 12:27:12;;;;;;;;;;;;;;;33.21;19.23;100889.78;5106449;28;20292;-83
2024/03/07 12:30:02;;;;;;;;;;;;;;;33.30;18.20;100874.91;5114718;28;19915;-84
2024/03/07 12:32:57;;;;;;;;;;;;;;;34.59;16.31;100883.53;5100224;28;19915;-83
2024/03/07 12:35:48;;;;;;;;;;;;;;;34.32;17.44;100878.00;5099760;28;20408;-84
2024/03/07 12:38:40;;;;;;;;;;;;;;;33.49;18.10;100876.47;5091951;28;19916;-85
2024/03/07 12:41:30;;;;;;;;;;;;;;;34.23;17.84;100875.22;5085595;28;19920;-84
2024/03/07 12:44:19;;;;;;;;;;;;;;;31.50;20.74;100860.13;5079611;28;20394;-84
2024/03/07 12:47:09;;;;;;;;;;;;;;;31.42;20.90;100854.78;5055101;28;19916;-83
2024/03/07 12:50:07;;;;;;;;;;;;;;;29.27;23.05;100857.25;5078843;28;19916;-83
2024/03/07 12:52:59;;;;;;;;;;;;;;;29.46;22.64;100847.16;5078692;28;19915;-82
2024/03/07 12:55:51;;;;;;;;;;;;;;;27.10;26.27;100845.47;5084797;28;19915;-84
2024/03/07 12:58:43;;;;;;;;;;;;;;;23.30;31.93;100844.41;5091321;28;19916;-84
2024/03/07 13:01:28;;;;;;;;;;;;;;;21.39;33.91;100843.81;5113903;28;20462;-84
2024/03/07 13:04:20;;;;;;;;;;;;;;;21.62;34.53;100839.63;5105444;28;19915;-84
2024/03/07 13:07:12;;;;;;;;;;;;;;;19.42;39.05;100839.28;5088331;28;19916;-82
2024/03/07 13:10:03;;;;;;;;;;;;;;;20.73;36.33;100845.63;5091294;28;20646;-83
2024/03/07 13:12:55;;;;;;;;;;;;;;;21.21;35.51;100838.97;5072905;28;19916;-84
2024/03/07 13:15:47;;;;;;;;;;;;;;;21.52;35.24;100825.72;5088794;28;20385;-82
2024/03/07 13:18:39;;;;;;;;;;;;;;;20.81;36.32;100836.25;5093790;28;19920;-84
2024/03/07 13:21:31;;;;;;;;;;;;;;;20.67;36.96;100831.38;5072065;28;19920;-84
2024/03/07 13:24:22;;;;;;;;;;;;;;;21.56;35.30;100826.53;5094508;28;19920;-85
2024/03/07 13:27:19;;;;;;;;;;;;;;;22.39;33.82;100826.50;5073549;28;19916;-84
2024/03/07 13:30:08;;;;;;;;;;;;;;;20.76;35.67;100828.31;5105432;28;19915;-84
2024/03/07 13:33:00;;;;;;;;;;;;;;;20.51;37.06;100822.53;5099915;28;19916;-84
2024/03/07 13:35:51;;;;;;;;;;;;;;;20.44;36.43;100820.50;5090379;28;19916;-84
2024/03/07 13:38:43;;;;;;;;;;;;;;;20.60;36.58;100820.25;5071037;28;19932;-85
2024/03/07 13:41:33;;;;;;;;;;;;;;;20.70;36.00;100813.25;5065018;28;19921;-84
2024/03/07 13:44:25;;;;;;;;;;;;;;;20.23;37.03;100814.72;5065277;28;19920;-84
2024/03/07 13:47:19;;;;;;;;;;;;;;;19.21;39.14;100814.13;5072162;28;19920;-83
2024/03/07 13:50:11;;;;;;;;;;;;;;;21.33;35.24;100808.22;5084211;28;19916;-85
2024/03/07 13:53:13;;;;;;;;;;;;;;;22.23;33.76;100815.00;5081339;28;19916;-84
2024/03/07 13:56:25;;;;;;;;;;;;;;;22.28;32.69;100812.63;5073002;28;19916;-84
2024/03/07 13:59:20;;;;;;;;;;;;;;;21.93;33.31;100804.19;5087712;28;19916;-83
2024/03/07 14:02:30;;;;;;;;;;;;;;;18.77;39.94;100792.59;5098545;28;19920;-84
2024/03/07 14:05:36;;;;;;;;;;;;;;;18.54;41.81;100799.28;5090922;28;19916;-83
2024/03/07 14:08:30;;;;;;;;;;;;;;;19.72;36.66;100786.09;5095710;28;19915;-84
2024/03/07 14:11:20;;;;;;;;;;;;;;;19.47;39.33;100783.81;5061122;28;19920;-83
2024/03/07 14:14:24;;;;;;;;;;;;;;;19.35;39.24;100780.47;5104050;28;19916;-83
2024/03/07 14:17:32;;;;;;;;;;;;;;;19.27;39.72;100784.28;5090075;28;19916;-83
2024/03/07 14:20:31;;;;;;;;;;;;;;;17.45;42.60;100782.91;5073659;28;19924;-82
2024/03/07 14:23:26;;;;;;;;;;;;;;;18.24;40.94;100788.06;5062916;28;19920;-84
2024/03/07 14:26:34;;;;;;;;;;;;;;;18.06;40.59;100784.19;5088193;28;19923;-85
2024/03/07 14:29:30;;;;;;;;;;;;;;;17.40;42.83;100782.38;5086534;28;20658;-83
2024/03/07 14:32:27;;;;;;;;;;;;;;;17.50;42.75;100787.31;5116158;28;19920;-85
2024/03/07 14:35:24;;;;;;;;;;;;;;;17.42;42.05;100782.84;5100805;28;19916;-83
2024/03/07 14:38:20;;;;;;;;;;;;;;;17.76;41.37;100772.97;5097885;28;19916;-81
2024/03/07 14:41:12;;;;;;;;;;;;;;;17.69;42.95;100770.88;5086921;28;19920;-83
2024/03/07 14:44:04;;;;;;;;;;;;;;;17.70;42.16;100769.72;5067473;28;19916;-83
2024/03/07 14:47:01;;;;;;;;;;;;;;;17.75;41.46;100771.38;5073268;28;19916;-82
2024/03/07 14:49:50;;;;;;;;;;;;;;;17.61;42.59;100776.59;5086904;28;19916;-83